Time;durP1;ratioP1;P1;durP2;ratioP2;P2;SDS_P1;SDS_P2;PMS_P1;PMS_P2;Temp;Humidity;BMP_temperature;BMP_pressure;BME280_temperature;BME280_humidity;BME280_pressure;Samples;Min_cycle;Max_cycle;Signal;HPM_P1;HPM_P2
2023/03/01 00:01:21;;;;;;;44.13;23.23;;;;;;;-0.73;77.85;101737.11;123633;1105;104302;-76
2023/03/01 00:03:53;;;;;;;47.93;25.97;;;;;;;-0.72;78.08;101738.02;123621;1109;104154;-75
2023/03/01 00:06:25;;;;;;;46.87;25.73;;;;;;;-0.69;77.86;101737.42;123670;1106;101964;-75
2023/03/01 00:08:56;;;;;;;48.50;26.47;;;;;;;-0.71;77.73;101732.11;123640;1109;103611;-75
2023/03/01 00:11:29;;;;;;;48.23;26.47;;;;;;;-0.70;77.10;101733.02;123688;1109;101964;-76
2023/03/01 00:14:04;;;;;;;47.90;26.00;;;;;;;-0.68;77.71;101731.52;123632;1109;102055;-75
2023/03/01 00:16:38;;;;;;;45.20;24.53;;;;;;;-0.66;78.17;101727.42;123725;1109;101979;-76
2023/03/01 00:19:11;;;;;;;47.20;24.27;;;;;;;-0.67;77.38;101726.52;123677;1109;104286;-75
2023/03/01 00:21:43;;;;;;;49.03;24.67;;;;;;;-0.67;78.04;101730.74;123702;1109;104242;-76
2023/03/01 00:24:14;;;;;;;44.60;23.77;;;;;;;-0.69;78.07;101721.95;123671;1108;101849;-76
2023/03/01 00:26:47;;;;;;;42.83;22.03;;;;;;;-0.73;77.92;101725.91;123681;1105;104191;-76
2023/03/01 00:29:18;;;;;;;44.80;22.20;;;;;;;-0.75;77.76;101722.23;123668;1105;104252;-76
2023/03/01 00:31:50;;;;;;;41.00;21.30;;;;;;;-0.78;77.57;101717.71;123646;1105;104428;-76
2023/03/01 00:34:21;;;;;;;42.47;22.17;;;;;;;-0.78;78.23;101716.78;123689;1105;101940;-76
2023/03/01 00:36:52;;;;;;;42.47;21.70;;;;;;;-0.78;78.34;101712.55;123767;1105;101920;-76
2023/03/01 00:39:24;;;;;;;41.93;22.23;;;;;;;-0.77;77.94;101711.78;123679;1108;104223;-76
2023/03/01 00:41:56;;;;;;;40.30;21.17;;;;;;;-0.73;77.97;101700.12;123671;1109;102487;-76
2023/03/01 00:44:28;;;;;;;40.80;21.13;;;;;;;-0.70;78.83;101699.50;123645;1109;104288;-76
2023/03/01 00:46:59;;;;;;;41.60;22.10;;;;;;;-0.68;78.21;101698.91;123665;1106;104376;-76
2023/03/01 00:49:31;;;;;;;41.33;21.93;;;;;;;-0.66;77.84;101691.33;123620;1108;104351;-75
2023/03/01 00:52:02;;;;;;;44.03;22.43;;;;;;;-0.64;78.15;101684.64;123848;1105;104271;-76
2023/03/01 00:54:33;;;;;;;44.70;22.93;;;;;;;-0.61;78.91;101693.62;123636;1106;104206;-76
2023/03/01 00:57:05;;;;;;;41.97;21.13;;;;;;;-0.60;78.90;101687.68;123915;1109;104291;-76
2023/03/01 00:59:36;;;;;;;39.57;21.10;;;;;;;-0.58;78.02;101681.03;123664;1104;104112;-76
2023/03/01 01:02:07;;;;;;;42.93;23.17;;;;;;;-0.55;78.61;101680.41;124355;1109;104319;-75
2023/03/01 01:04:39;;;;;;;42.27;21.57;;;;;;;-0.53;78.71;101677.98;123636;1105;104765;-76
2023/03/01 01:07:10;;;;;;;40.73;22.00;;;;;;;-0.52;78.58;101675.55;123702;1105;104185;-75
2023/03/01 01:09:41;;;;;;;35.97;18.43;;;;;;;-0.54;78.75;101666.77;123722;1106;104182;-75
2023/03/01 01:12:13;;;;;;;39.37;19.73;;;;;;;-0.55;79.18;101660.71;123710;1105;104255;-76
2023/03/01 01:14:45;;;;;;;39.57;19.60;;;;;;;-0.57;79.32;101649.31;123691;1105;104265;-76
2023/03/01 01:17:16;;;;;;;36.27;19.70;;;;;;;-0.59;79.33;101642.20;123694;1105;104364;-76
2023/03/01 01:19:47;;;;;;;39.57;20.40;;;;;;;-0.64;78.83;101640.82;123697;1109;104332;-75
2023/03/01 01:22:18;;;;;;;41.07;20.90;;;;;;;-0.68;79.42;101641.30;124395;1108;104273;-76
2023/03/01 01:24:50;;;;;;;39.93;20.07;;;;;;;-0.71;79.07;101638.42;123665;1108;104100;-76
2023/03/01 01:27:21;;;;;;;38.37;20.30;;;;;;;-0.75;79.57;101640.69;123652;1109;104325;-76
2023/03/01 01:29:53;;;;;;;42.77;22.33;;;;;;;-0.79;79.10;101640.23;123724;1106;101893;-76
2023/03/01 01:32:25;;;;;;;41.23;21.50;;;;;;;-0.82;79.40;101638.25;123744;1108;102008;-76
2023/03/01 01:34:56;;;;;;;40.00;20.80;;;;;;;-0.83;78.89;101641.58;123675;1105;102623;-76
2023/03/01 01:37:30;;;;;;;41.50;21.17;;;;;;;-0.82;79.45;101647.66;123665;1105;104245;-76
2023/03/01 01:40:04;;;;;;;41.60;20.53;;;;;;;-0.84;79.44;101646.58;123729;1105;101986;-76
2023/03/01 01:42:35;;;;;;;41.63;22.17;;;;;;;-0.86;79.59;101641.27;123736;1105;101937;-76
2023/03/01 01:45:30;;;;;;;39.95;21.60;;;;;;;-0.86;78.57;101635.22;123694;1105;102217;-76
2023/03/01 01:48:05;;;;;;;40.63;20.93;;;;;;;-0.87;79.29;101634.31;123728;1106;104206;-76
2023/03/01 01:50:40;;;;;;;39.10;20.37;;;;;;;-0.92;78.70;101631.28;123708;1106;104191;-76
2023/03/01 01:53:16;;;;;;;41.57;22.00;;;;;;;-0.95;79.64;101627.47;123712;1106;104245;-75
2023/03/01 01:55:53;;;;;;;38.73;20.80;;;;;;;-0.98;78.72;101624.58;123658;1106;104233;-76
2023/03/01 01:58:25;;;;;;;41.97;21.43;;;;;;;-1.00;78.67;101624.43;123681;1106;104264;-76
2023/03/01 02:00:57;;;;;;;41.60;22.43;;;;;;;-1.01;78.54;101620.06;123660;1109;101954;-76
2023/03/01 02:03:33;;;;;;;43.90;22.00;;;;;;;-1.00;79.35;101616.70;123661;1109;104358;-76
2023/03/01 02:06:12;;;;;;;43.55;22.50;;;;;;;-1.01;79.05;101619.13;123636;1105;104261;-76
2023/03/01 02:08:45;;;;;;;48.50;22.73;;;;;;;-1.04;79.21;101614.59;123678;1109;104322;-76
2023/03/01 02:11:18;;;;;;;46.33;22.07;;;;;;;-1.01;79.17;101606.25;123722;1105;101916;-76
2023/03/01 02:13:50;;;;;;;45.07;22.27;;;;;;;-1.01;79.17;101607.17;123688;1105;104227;-75
2023/03/01 02:16:22;;;;;;;42.73;22.63;;;;;;;-0.99;79.41;101600.50;123627;1105;101919;-76
2023/03/01 02:18:54;;;;;;;42.10;22.20;;;;;;;-0.97;78.84;101604.13;123662;1109;104207;-76
2023/03/01 02:21:38;;;;;;;40.93;21.93;;;;;;;-0.97;79.83;101598.97;123741;1105;104205;-76
2023/03/01 02:24:19;;;;;;;42.08;20.95;;;;;;;-0.98;78.92;101596.24;123704;1105;104670;-75
2023/03/01 02:26:54;;;;;;;42.00;21.60;;;;;;;-0.98;79.60;101596.24;123655;1109;102056;-76
2023/03/01 02:29:28;;;;;;;40.67;21.30;;;;;;;-0.96;79.99;101597.33;123604;1106;104287;-75
2023/03/01 02:32:02;;;;;;;44.83;21.50;;;;;;;-0.95;79.61;101597.48;123688;1106;101932;-76
2023/03/01 02:34:32;;;;;;;;;;;;;;;-0.92;80.66;101600.36;123715;1106;104185;-75
2023/03/01 02:37:06;;;;;;;42.23;20.43;;;;;;;-0.93;79.80;101593.37;123628;1108;104203;-75
2023/03/01 02:39:44;;;;;;;39.50;20.83;;;;;;;-0.92;79.69;101597.78;123647;1109;104261;-74
2023/03/01 02:42:19;;;;;;;40.10;21.10;;;;;;;-0.89;79.50;101594.58;123654;1109;104354;-75
2023/03/01 02:44:51;;;;;;;41.40;21.40;;;;;;;-0.88;79.91;101595.52;123653;1106;104230;-74
2023/03/01 02:47:23;;;;;;;40.33;19.70;;;;;;;-0.87;79.94;101592.16;123626;1109;102103;-74
2023/03/01 02:49:54;;;;;;;35.70;18.17;;;;;;;-0.88;79.86;101580.05;123622;1109;101931;-74
2023/03/01 02:52:44;;;;;;;41.23;20.10;;;;;;;-0.89;79.90;101578.22;123656;1108;102558;-74
2023/03/01 02:55:17;;;;;;;40.43;19.43;;;;;;;-0.89;79.81;101571.39;123654;1104;104268;-74
2023/03/01 02:57:50;;;;;;;40.50;19.27;;;;;;;-0.86;80.01;101573.37;123634;1105;104236;-74
2023/03/01 03:00:25;;;;;;;36.83;18.93;;;;;;;-0.88;79.09;101564.59;123652;1109;104188;-74
2023/03/01 03:02:57;;;;;;;35.47;17.60;;;;;;;-0.91;80.48;101565.19;123764;1106;104354;-74
2023/03/01 03:05:31;;;;;;;35.83;18.40;;;;;;;-0.93;79.62;101562.45;123655;1109;104344;-74
2023/03/01 03:08:05;;;;;;;33.58;16.42;;;;;;;-0.94;80.02;101564.88;123654;1105;101850;-74
2023/03/01 03:10:42;;;;;;;35.20;16.55;;;;;;;-0.98;79.70;101562.75;123704;1109;102044;-74
2023/03/01 03:13:13;;;;;;;;;;;;;;;-0.99;80.54;101560.95;123679;1105;104642;-74
2023/03/01 03:15:44;;;;;;;34.60;16.53;;;;;;;-1.03;79.53;101558.81;123658;1105;104387;-74
2023/03/01 03:18:18;;;;;;;39.97;19.20;;;;;;;-1.05;79.54;101563.82;123723;1105;104185;-74
2023/03/01 03:20:52;;;;;;;34.53;18.87;;;;;;;-1.03;80.23;101575.17;123654;1105;101868;-74
2023/03/01 03:23:22;;;;;;;;;;;;;;;-1.01;79.86;101572.75;123725;1105;104185;-74
2023/03/01 03:25:54;;;;;;;38.27;18.63;;;;;;;-1.01;80.33;101573.69;123648;1109;104299;-74
2023/03/01 03:28:25;;;;;;;39.80;19.37;;;;;;;-1.00;80.00;101583.20;123683;1106;104264;-74
2023/03/01 03:30:56;;;;;;;40.87;19.27;;;;;;;-0.99;80.29;101581.56;123700;1105;104197;-74
2023/03/01 03:33:27;;;;;;;36.63;18.30;;;;;;;-1.00;80.48;101578.05;123683;1109;104274;-74
2023/03/01 03:35:59;;;;;;;33.20;16.67;;;;;;;-1.02;79.82;101576.11;123636;1106;103362;-74
2023/03/01 03:38:30;;;;;;;36.43;17.50;;;;;;;-1.08;80.71;101581.55;123701;1105;104264;-74
2023/03/01 03:41:07;;;;;;;35.53;17.50;;;;;;;-1.12;80.21;101576.88;123681;1105;104182;-74
2023/03/01 03:43:40;;;;;;;34.93;17.20;;;;;;;-1.14;80.23;101571.56;123647;1108;104226;-74
2023/03/01 03:46:13;;;;;;;34.73;17.63;;;;;;;-1.17;80.67;101573.84;123642;1109;104283;-74
2023/03/01 03:48:46;;;;;;;32.90;17.57;;;;;;;-1.21;80.28;101563.97;123726;1105;101951;-74
2023/03/01 03:51:19;;;;;;;35.00;16.42;;;;;;;-1.22;79.92;101567.30;123686;1105;104296;-74
2023/03/01 03:53:50;;;;;;;36.20;17.45;;;;;;;-1.24;80.20;101563.67;123660;1106;104245;-74
2023/03/01 03:56:25;;;;;;;33.93;16.97;;;;;;;-1.27;79.83;101564.26;123648;1106;104290;-74
2023/03/01 03:58:57;;;;;;;33.33;17.17;;;;;;;-1.28;80.47;101559.89;123636;1105;104227;-74
2023/03/01 04:01:28;;;;;;;38.80;18.67;;;;;;;-1.31;80.46;101558.65;123673;1105;104360;-74
2023/03/01 04:04:03;;;;;;;37.53;18.67;;;;;;;-1.34;80.62;101561.84;123665;1106;102328;-74
2023/03/01 04:06:35;;;;;;;36.40;18.40;;;;;;;-1.36;80.62;101565.02;123674;1105;104245;-74
2023/03/01 04:09:06;;;;;;;37.90;17.27;;;;;;;-1.37;81.02;101563.19;123733;1106;102103;-74
2023/03/01 04:11:38;;;;;;;35.87;17.90;;;;;;;-1.38;80.85;101562.28;123675;1109;104214;-74
2023/03/01 04:14:10;;;;;;;36.73;18.70;;;;;;;-1.37;80.87;101550.31;123689;1105;104296;-74
2023/03/01 04:16:42;;;;;;;35.83;19.20;;;;;;;-1.38;80.96;101559.70;123639;1109;102975;-74
2023/03/01 04:19:15;;;;;;;40.13;19.43;;;;;;;-1.39;80.82;101552.73;123639;1109;104255;-74
2023/03/01 04:21:46;;;;;;;37.63;18.83;;;;;;;-1.40;80.51;101540.64;123687;1105;104358;-74
2023/03/01 04:24:17;;;;;;;42.13;19.47;;;;;;;-1.41;80.93;101551.68;123680;1109;104371;-75
2023/03/01 04:26:48;;;;;;;40.43;19.53;;;;;;;-1.44;80.46;101543.65;123722;1107;104326;-74
2023/03/01 04:29:19;;;;;;;40.55;20.95;;;;;;;-1.45;80.69;101552.11;123699;1109;104227;-74
2023/03/01 04:31:51;;;;;;;37.97;18.77;;;;;;;-1.47;81.15;101558.78;123656;1109;102089;-74
2023/03/01 04:34:23;;;;;;;39.03;18.67;;;;;;;-1.47;80.96;101563.94;123699;1108;101950;-75
2023/03/01 04:36:54;;;;;;;39.00;18.50;;;;;;;-1.50;81.05;101564.52;123662;1109;104233;-74
2023/03/01 04:39:25;;;;;;;40.63;18.07;;;;;;;-1.51;80.20;101574.66;123623;1106;104190;-74
2023/03/01 04:41:57;;;;;;;41.40;19.60;;;;;;;-1.52;80.76;101576.34;123654;1108;104261;-74
2023/03/01 04:44:28;;;;;;;34.10;18.00;;;;;;;-1.51;80.65;101577.24;123725;1106;102060;-74
2023/03/01 04:46:59;;;;;;;35.73;17.47;;;;;;;-1.50;81.10;101573.92;123684;1105;102047;-74
2023/03/01 04:49:31;;;;;;;35.50;17.53;;;;;;;-1.49;80.63;101571.50;123687;1109;104274;-75
2023/03/01 04:52:02;;;;;;;35.20;16.90;;;;;;;-1.50;81.79;101571.34;124429;1105;102461;-76
2023/03/01 04:54:35;;;;;;;35.70;16.53;;;;;;;-1.54;81.23;101575.29;124054;1105;104189;-76
2023/03/01 04:57:06;;;;;;;32.87;16.27;;;;;;;-1.54;81.02;101571.78;124072;1109;101884;-76
2023/03/01 04:59:37;;;;;;;34.77;16.43;;;;;;;-1.54;80.58;101571.78;124070;1109;104363;-75
2023/03/01 05:02:09;;;;;;;30.33;15.23;;;;;;;-1.52;80.86;101581.49;124008;1106;104210;-76
2023/03/01 05:04:40;;;;;;;32.13;15.67;;;;;;;-1.49;80.67;101580.91;124025;1109;102074;-76
2023/03/01 05:07:12;;;;;;;35.17;16.60;;;;;;;-1.47;80.94;101571.66;124053;1106;104248;-76
2023/03/01 05:09:44;;;;;;;38.00;16.70;;;;;;;-1.45;81.13;101567.56;124080;1105;104251;-76
2023/03/01 05:12:15;;;;;;;34.90;16.07;;;;;;;-1.40;82.00;101576.68;124632;1105;102015;-76
2023/03/01 05:14:47;;;;;;;34.67;15.50;;;;;;;-1.34;81.88;101581.52;123950;1109;104165;-76
2023/03/01 05:17:18;;;;;;;36.27;17.40;;;;;;;-1.32;81.05;101569.73;124087;1106;101922;-77
2023/03/01 05:19:50;;;;;;;34.40;16.57;;;;;;;-1.28;81.50;101570.19;124145;1106;104181;-77
2023/03/01 05:22:21;;;;;;;35.40;17.10;;;;;;;-1.23;81.43;101574.87;124263;1105;104188;-77
2023/03/01 05:24:53;;;;;;;32.07;15.73;;;;;;;-1.21;81.55;101576.85;124229;1108;104172;-79
2023/03/01 05:27:26;;;;;;;36.00;15.87;;;;;;;-1.20;81.60;101576.11;124238;1106;104089;-77
2023/03/01 05:29:57;;;;;;;33.23;15.63;;;;;;;-1.19;81.63;101572.75;124506;1108;104287;-77
2023/03/01 05:32:31;;;;;;;33.27;16.47;;;;;;;-1.15;80.94;101574.89;125216;1105;104175;-77
2023/03/01 05:35:03;;;;;;;32.80;15.63;;;;;;;-1.03;82.43;101584.58;124333;1105;101860;-78
2023/03/01 05:37:35;;;;;;;31.83;14.43;;;;;;;-0.95;81.66;101579.44;124304;1105;104223;-79
2023/03/01 05:40:15;;;;;;;32.73;14.70;;;;;;;-0.87;81.95;101582.78;124279;1109;101841;-77
2023/03/01 05:42:48;;;;;;;30.73;15.13;;;;;;;-0.80;81.90;101571.39;124313;1106;101848;-78
2023/03/01 05:45:20;;;;;;;33.83;15.05;;;;;;;-0.68;82.05;101574.28;124278;1108;104194;-78
2023/03/01 05:47:52;;;;;;;32.50;13.80;;;;;;;-0.52;82.60;101577.56;124312;1106;101897;-78
2023/03/01 05:50:26;;;;;;;32.87;15.23;;;;;;;-0.37;81.85;101575.58;124157;1109;104280;-78
2023/03/01 05:53:05;;;;;;;30.92;15.53;;;;;;;-0.23;82.02;101570.06;125256;1105;104211;-77
2023/03/01 05:55:38;;;;;;;33.40;15.60;;;;;;;-0.13;81.51;101571.84;124331;1106;101826;-77
2023/03/01 05:58:12;;;;;;;28.60;13.53;;;;;;;-0.02;82.47;101572.87;124628;1105;101763;-78
2023/03/01 06:00:51;;;;;;;30.00;13.73;;;;;;;0.04;81.76;101573.45;124629;1105;101852;-78
2023/03/01 06:03:22;;;;;;;32.13;14.00;;;;;;;0.13;81.92;101576.91;124612;1104;102314;-78
2023/03/01 06:05:58;;;;;;;28.80;14.10;;;;;;;0.23;81.50;101580.36;124280;1106;104319;-77
2023/03/01 06:08:29;;;;;;;29.77;14.23;;;;;;;0.26;81.58;101571.22;124139;1106;101964;-77
2023/03/01 06:11:05;;;;;;;28.57;12.70;;;;;;;0.26;82.01;101570.32;124228;1109;102214;-77
2023/03/01 06:13:36;;;;;;;33.03;14.40;;;;;;;0.28;82.00;101568.78;124171;1109;101994;-78
2023/03/01 06:16:11;;;;;;;30.30;13.37;;;;;;;0.29;81.95;101568.03;124176;1109;104191;-83
2023/03/01 06:18:43;;;;;;;28.35;13.18;;;;;;;0.31;81.50;101577.75;124673;1105;101923;-78
2023/03/01 06:21:15;;;;;;;29.97;14.63;;;;;;;0.41;82.20;101568.28;124389;1105;102869;-80
2023/03/01 06:23:48;;;;;;;28.57;13.67;;;;;;;0.50;81.70;101566.56;124159;1105;102098;-79
2023/03/01 06:26:19;;;;;;;29.77;14.37;;;;;;;0.54;82.32;101573.80;123966;1105;102119;-77
2023/03/01 06:28:52;;;;;;;28.70;14.00;;;;;;;0.56;81.89;101567.09;124306;1105;102325;-76
2023/03/01 06:31:23;;;;;;;32.37;15.67;;;;;;;0.59;81.15;101567.38;123853;1105;104214;-78
2023/03/01 06:33:58;;;;;;;30.60;14.37;;;;;;;0.66;82.33;101559.44;123943;1105;104366;-79
2023/03/01 06:36:51;;;;;;;30.90;14.75;;;;;;;0.73;81.66;101550.57;124701;1104;104200;-76
2023/03/01 06:39:23;;;;;;;34.10;15.57;;;;;;;0.77;82.24;101554.36;124224;1109;102252;-77
2023/03/01 06:42:41;;;;;;;32.77;14.70;;;;;;;0.81;81.37;101548.69;124126;1106;104201;-78
2023/03/01 06:45:14;;;;;;;29.73;14.17;;;;;;;0.87;81.78;101542.42;124170;1105;104682;-76
2023/03/01 06:47:45;;;;;;;30.63;14.50;;;;;;;0.92;81.46;101545.44;124302;1106;104174;-80
2023/03/01 06:50:17;;;;;;;31.17;14.47;;;;;;;1.02;81.54;101549.75;124132;1106;104674;-76
2023/03/01 06:52:49;;;;;;;28.03;14.27;;;;;;;1.15;81.96;101541.41;123725;1105;104249;-76
2023/03/01 06:55:22;;;;;;;32.53;15.90;;;;;;;1.26;81.09;101551.03;124114;1105;104196;-77
2023/03/01 06:58:08;;;;;;;33.10;15.45;;;;;;;1.35;81.45;101551.86;124322;1109;101977;-81
2023/03/01 07:00:40;;;;;;;32.07;15.23;;;;;;;1.46;81.30;101554.51;124499;1106;102203;-80
2023/03/01 07:03:12;;;;;;;35.43;16.43;;;;;;;1.53;81.77;101542.26;124529;1106;104137;-77
2023/03/01 07:05:46;;;;;;;32.17;15.47;;;;;;;1.51;80.37;101532.53;124152;1105;104283;-77
2023/03/01 07:08:18;;;;;;;34.83;16.20;;;;;;;1.67;80.48;101546.06;123877;1106;104230;-79
2023/03/01 07:10:56;;;;;;;33.70;15.87;;;;;;;1.77;81.41;101533.14;124026;1105;104261;-80
2023/03/01 07:13:44;;;;;;;31.80;15.43;;;;;;;1.85;80.66;101530.33;124148;1109;104252;-80
2023/03/01 07:16:20;;;;;;;31.97;14.97;;;;;;;1.90;80.97;101529.03;124056;1106;102088;-77
2023/03/01 07:18:59;;;;;;;30.73;14.87;;;;;;;1.99;80.58;101532.42;124052;1109;102035;-77
2023/03/01 07:21:30;;;;;;;32.83;16.07;;;;;;;2.07;80.16;101522.72;123821;1109;104236;-77
2023/03/01 07:24:02;;;;;;;31.57;14.80;;;;;;;2.14;80.34;101525.97;123878;1106;104191;-77
2023/03/01 07:26:34;;;;;;;34.27;15.57;;;;;;;2.24;81.01;101519.89;123994;1106;101888;-78
2023/03/01 07:29:10;;;;;;;30.93;14.50;;;;;;;2.33;80.47;101523.27;123997;1109;102148;-80
2023/03/01 07:31:43;;;;;;;36.60;15.65;;;;;;;2.39;80.05;101527.17;124735;1109;104306;-79
2023/03/01 07:34:24;;;;;;;31.23;13.63;;;;;;;2.47;80.18;101523.55;124009;1108;104019;-80
2023/03/01 07:36:55;;;;;;;29.13;14.97;;;;;;;2.54;79.67;101535.31;124044;1109;104293;-81
2023/03/01 07:39:40;;;;;;;;;;;;;;;2.62;78.44;101521.34;125007;1108;101859;-79
2023/03/01 07:42:18;;;;;;;31.20;14.33;;;;;;;2.64;79.23;101520.67;124581;1109;102967;-80
2023/03/01 07:44:51;;;;;;;29.33;13.70;;;;;;;2.69;78.13;101518.47;124051;1106;104256;-79
2023/03/01 07:47:37;;;;;;;28.37;13.83;;;;;;;2.75;78.60;101521.58;124248;1108;104217;-80
2023/03/01 07:50:16;;;;;;;30.30;14.60;;;;;;;2.79;79.20;101526.25;124463;1106;102899;-80
2023/03/01 07:53:07;;;;;;;;;;;;;;;;;;;;;
2023/03/01 07:55:44;;;;;;;29.20;13.53;;;;;;;3.01;78.26;101515.06;124124;1109;104236;-77
2023/03/01 07:58:22;;;;;;;31.25;13.45;;;;;;;3.11;78.91;101516.71;125076;1108;102223;-78
2023/03/01 08:00:58;;;;;;;34.00;15.20;;;;;;;3.20;77.67;101520.95;124026;1109;104351;-77
2023/03/01 08:03:38;;;;;;;28.43;13.73;;;;;;;3.28;77.72;101513.80;124125;1108;102023;-78
2023/03/01 08:06:14;;;;;;;33.37;13.30;;;;;;;3.30;77.18;101508.73;124072;1109;104295;-78
2023/03/01 08:08:49;;;;;;;28.47;12.53;;;;;;;3.30;77.41;101508.73;124890;1104;102044;-81
2023/03/01 08:11:23;;;;;;;26.53;12.93;;;;;;;3.34;75.73;101492.64;124268;1105;102426;-80
2023/03/01 08:14:02;;;;;;;26.30;12.73;;;;;;;3.36;76.19;101493.66;124078;1105;102209;-81
2023/03/01 08:16:43;;;;;;;27.40;12.40;;;;;;;3.40;76.87;101488.84;124803;1105;101857;-84
2023/03/01 08:19:24;;;;;;;26.07;11.60;;;;;;;3.45;74.87;101486.62;125143;1105;104181;-79
2023/03/01 08:22:02;;;;;;;26.57;12.50;;;;;;;3.47;74.85;101484.15;124956;1109;104227;-78
2023/03/01 08:24:36;;;;;;;25.00;12.87;;;;;;;3.51;76.39;101479.33;125448;1105;104294;-79
2023/03/01 08:27:13;;;;;;;29.20;13.27;;;;;;;3.58;75.21;101484.23;124865;1109;104185;-79
2023/03/01 08:29:54;;;;;;;27.90;13.65;;;;;;;3.65;75.58;101480.42;124656;1105;102035;-80
2023/03/01 08:32:39;;;;;;;30.73;14.13;;;;;;;3.72;75.25;101474.91;125585;1104;101794;-80
2023/03/01 08:35:19;;;;;;;28.03;12.83;;;;;;;3.84;75.02;101477.58;125738;1105;110874;-84
2023/03/01 08:37:52;;;;;;;28.77;13.83;;;;;;;3.94;75.13;101474.00;125705;1105;102209;-81
2023/03/01 08:40:30;;;;;;;29.60;12.70;;;;;;;4.01;74.72;101467.61;125624;1104;102707;-77
2023/03/01 08:43:10;;;;;;;27.37;12.03;;;;;;;4.04;74.30;101465.25;124905;1109;104044;-83
2023/03/01 08:45:47;;;;;;;26.77;13.07;;;;;;;4.10;73.89;101456.23;125559;1104;102059;-81
2023/03/01 08:48:23;;;;;;;26.07;13.10;;;;;;;4.12;73.23;101445.96;124724;1106;102322;-80
2023/03/01 08:51:00;;;;;;;28.67;12.33;;;;;;;4.22;74.13;101445.85;125094;1104;101939;-79
2023/03/01 08:53:32;;;;;;;28.97;13.07;;;;;;;4.32;74.08;101450.98;124129;1108;104240;-79
2023/03/01 08:56:10;;;;;;;26.13;12.03;;;;;;;4.38;72.73;101437.55;123873;1105;101999;-77
2023/03/01 08:58:44;;;;;;;27.43;13.37;;;;;;;4.47;73.71;101440.84;123966;1109;102008;-79
2023/03/01 09:01:18;;;;;;;26.53;12.73;;;;;;;4.57;73.19;101432.03;125098;1105;102437;-79
2023/03/01 09:03:57;;;;;;;28.65;12.40;;;;;;;4.59;72.89;101434.75;124255;1105;102285;-79
2023/03/01 09:06:34;;;;;;;25.63;12.70;;;;;;;4.60;72.27;101440.06;123887;1109;102491;-78
2023/03/01 09:09:09;;;;;;;26.60;12.47;;;;;;;4.60;71.51;101432.27;123936;1105;104194;-79
2023/03/01 09:11:56;;;;;;;26.93;12.97;;;;;;;4.67;72.35;101423.22;124243;1105;104155;-80
2023/03/01 09:14:30;;;;;;;25.77;12.47;;;;;;;4.74;71.26;101432.40;124206;1106;101915;-75
2023/03/01 09:17:06;;;;;;;27.60;12.30;;;;;;;4.75;70.58;101416.87;124706;1105;104313;-76
2023/03/01 09:19:42;;;;;;;25.30;12.37;;;;;;;4.77;71.27;101416.98;123848;1109;104293;-77
2023/03/01 09:22:16;;;;;;;25.85;11.55;;;;;;;4.79;69.74;101418.03;123922;1105;104230;-78
2023/03/01 09:24:51;;;;;;;28.43;12.40;;;;;;;4.81;70.64;101427.73;124097;1105;104086;-78
2023/03/01 09:27:27;;;;;;;23.27;10.93;;;;;;;4.85;69.53;101434.98;124594;1105;104674;-81
2023/03/01 09:30:00;;;;;;;23.10;11.83;;;;;;;4.86;69.06;101438.47;124726;1106;104221;-78
2023/03/01 09:32:35;;;;;;;26.53;11.67;;;;;;;4.91;69.26;101428.41;125168;1105;101982;-79
2023/03/01 09:35:09;;;;;;;22.17;11.63;;;;;;;4.91;69.48;101431.94;124141;1105;104268;-81
2023/03/01 09:37:44;;;;;;;26.62;12.18;;;;;;;5.00;70.15;101429.08;124111;1105;104091;-78
2023/03/01 09:40:21;;;;;;;24.20;11.43;;;;;;;5.07;68.54;101425.25;124534;1105;104290;-81
2023/03/01 09:43:03;;;;;;;23.50;11.95;;;;;;;5.11;69.02;101422.06;124074;1109;104182;-78
2023/03/01 09:45:42;;;;;;;26.15;12.10;;;;;;;5.15;69.04;101411.09;124727;1105;104137;-81
2023/03/01 09:48:25;;;;;;;23.63;11.90;;;;;;;5.23;67.15;101422.95;125309;1105;104182;-82
2023/03/01 09:51:13;;;;;;;24.07;11.73;;;;;;;5.22;67.62;101409.05;124965;1105;102138;-80
2023/03/01 09:54:13;;;;;;;25.80;12.23;;;;;;;5.23;68.59;101404.73;125630;1109;101785;-80
2023/03/01 09:57:14;;;;;;;23.30;11.93;;;;;;;5.25;67.16;101397.96;123900;1106;102401;-77
2023/03/01 10:00:14;;;;;;;24.50;12.80;;;;;;;5.21;67.36;101390.72;124265;1109;103568;-80
2023/03/01 10:02:59;;;;;;;30.10;12.43;;;;;;;5.20;66.81;101383.69;124737;1105;103230;-80
2023/03/01 10:05:48;;;;;;;26.37;13.80;;;;;;;5.21;66.77;101391.61;124264;1106;102227;-78
2023/03/01 10:08:46;;;;;;;26.97;11.67;;;;;;;5.28;66.94;101386.84;124083;1109;103049;-77
2023/03/01 10:11:26;;;;;;;26.20;11.97;;;;;;;5.33;67.17;101380.25;123840;1109;104330;-77
2023/03/01 10:14:07;;;;;;;26.33;12.90;;;;;;;5.44;66.14;101381.94;123820;1109;104281;-77
2023/03/01 10:16:49;;;;;;;25.93;11.57;;;;;;;5.45;65.78;101380.23;124542;1107;102195;-79
2023/03/01 10:19:29;;;;;;;26.17;12.00;;;;;;;5.50;67.12;101371.96;123874;1109;102048;-78
2023/03/01 10:22:10;;;;;;;23.80;11.47;;;;;;;5.57;66.44;101368.97;123803;1109;104230;-73
2023/03/01 10:24:48;;;;;;;24.93;12.20;;;;;;;5.63;66.39;101359.80;124071;1105;104261;-78
2023/03/01 10:27:25;;;;;;;25.70;12.30;;;;;;;5.68;64.77;101377.52;124023;1105;102394;-75
2023/03/01 10:30:09;;;;;;;26.37;12.93;;;;;;;5.74;65.19;101367.53;123814;1109;102102;-78
2023/03/01 10:32:51;;;;;;;27.02;12.13;;;;;;;5.76;64.67;101372.84;124362;1109;102177;-77
2023/03/01 10:35:26;;;;;;;24.37;12.67;;;;;;;5.73;65.25;101357.94;124033;1108;104300;-76
2023/03/01 10:38:20;;;;;;;26.90;11.87;;;;;;;5.78;65.60;101365.14;123988;1105;101959;-75
2023/03/01 10:41:01;;;;;;;26.15;11.80;;;;;;;5.81;64.66;101345.41;123830;1109;104220;-74
2023/03/01 10:44:00;;;;;;;24.40;11.47;;;;;;;5.89;65.26;101354.67;123775;1109;104290;-77
2023/03/01 10:46:42;;;;;;;25.47;12.83;;;;;;;5.98;63.98;101351.80;124486;1104;104102;-76
2023/03/01 10:49:20;;;;;;;24.80;12.63;;;;;;;5.95;65.33;101351.56;124094;1108;104224;-78
2023/03/01 10:52:19;;;;;;;26.60;11.70;;;;;;;6.02;64.16;101350.33;123953;1106;101830;-77
2023/03/01 10:55:05;;;;;;;24.83;11.00;;;;;;;6.07;63.61;101338.51;124074;1105;104240;-77
2023/03/01 10:57:42;;;;;;;25.33;12.30;;;;;;;6.08;63.42;101336.00;124227;1106;101900;-75
2023/03/01 11:00:30;;;;;;;23.73;11.67;;;;;;;6.13;63.52;101327.60;123939;1105;104262;-77
2023/03/01 11:03:17;;;;;;;26.90;12.27;;;;;;;6.16;62.89;101346.05;124537;1109;101902;-77
2023/03/01 11:06:04;;;;;;;23.67;11.77;;;;;;;6.20;62.63;101327.19;124120;1105;104249;-76
2023/03/01 11:08:43;;;;;;;26.60;12.57;;;;;;;6.20;62.41;101328.11;124127;1109;118129;-75
2023/03/01 11:11:34;;;;;;;25.00;12.53;;;;;;;6.26;63.42;101323.31;123861;1106;104082;-75
2023/03/01 11:14:16;;;;;;;28.30;12.43;;;;;;;6.41;62.99;101322.51;123886;1105;102178;-76
2023/03/01 11:17:00;;;;;;;26.27;12.13;;;;;;;6.44;63.61;101314.89;123824;1109;102124;-76
2023/03/01 11:19:32;;;;;;;25.02;12.40;;;;;;;6.46;62.39;101318.48;123748;1109;104315;-73
2023/03/01 11:22:11;;;;;;;22.47;11.30;;;;;;;6.39;61.49;101314.59;123888;1109;104405;-77
2023/03/01 11:24:49;;;;;;;24.47;12.60;;;;;;;6.24;61.66;101287.51;115190;1109;10001546;-77
2023/03/01 11:27:26;;;;;;;23.67;11.57;;;;;;;6.31;62.57;101300.16;124145;1109;103589;-81
2023/03/01 11:30:15;;;;;;;24.50;12.47;;;;;;;6.41;62.73;101302.55;124196;1105;102472;-80
2023/03/01 11:32:54;;;;;;;24.23;12.13;;;;;;;6.38;61.83;101296.23;124219;1109;102276;-81
2023/03/01 11:35:29;;;;;;;23.83;11.63;;;;;;;6.33;61.20;101311.58;124149;1108;104261;-77
2023/03/01 11:38:26;;;;;;;24.13;12.90;;;;;;;6.31;61.21;101289.73;123906;1106;104326;-78